This is the latest recevied weather packets stored in our database for station/object KM6RDV. If no packets are shown the sender has not sent any weather packets the latest 10 day(s).
| Time | Temp. | Humidity | Pressure | Rain* | Wind** | Luminosity | Snow |
|---|---|---|---|---|---|---|---|
| 1777407019 | 20° C | 55% | 1022.6 hPa | 0 mm | - | 1013 W/m² | - |
| 1777405839 | 19.44° C | 56% | 1022.9 hPa | 0 mm | - | 1006 W/m² | - |
| 1777402816 | 18.33° C | 57% | 1023.3 hPa | 0 mm | - | 960 W/m² | - |
| 1777401017 | 18.33° C | 58% | 1023.5 hPa | 0 mm | - | 905 W/m² | - |
| 1777392619 | 15.56° C | 66% | 1023.2 hPa | 0 mm | - | 549 W/m² | - |
| 1777389017 | 13.89° C | 72% | 1023.1 hPa | 0 mm | - | 240 W/m² | - |
| 1777387218 | 11.67° C | 83% | 1022.8 hPa | 0 mm | - | 137 W/m² | - |
| 1777379418 | 8.89° C | 87% | 1022.1 hPa | 0 mm | - | 0 W/m² | - |
| 1777378219 | 9.44° C | 86% | 1022.2 hPa | 0 mm | - | 0 W/m² | - |
| 1777376438 | 9.44° C | 86% | 1022 hPa | 0 mm | - | - | - |
| 1777375827 | 9.44° C | 85% | 1022 hPa | 0 mm | - | 0 W/m² | - |
| 1777374023 | 10° C | 84% | 1021.7 hPa | 0 mm | - | 0 W/m² | - |
| 1777371638 | 10.56° C | 82% | 1021.6 hPa | 0 mm | - | 0 W/m² | - |
| 1777368615 | 10.56° C | 82% | 1022.2 hPa | 0 mm | - | 0 W/m² | - |
| 1777365021 | 10.56° C | 80% | 1022.3 hPa | 0 mm | - | 0 W/m² | - |
| 1777357820 | 11.67° C | 76% | 1022.4 hPa | 0 mm | - | 0 W/m² | - |
| 1777354828 | 12.22° C | 75% | 1022.4 hPa | 0 mm | - | - | - |
| 1777347627 | 13.33° C | 70% | 1021.6 hPa | 0 mm | - | 0 W/m² | - |
| 1777345224 | 13.89° C | 67% | 1021 hPa | 0 mm | - | 4 W/m² | - |
| 1777343428 | 14.44° C | 66% | 1020.8 hPa | 0 mm | - | 29 W/m² | - |
* Rain latest hour (hover to see other rain measurements)
** Current wind speed in m/s (hover to see current wind gust speed)